createdAt,value
2019-01-24T00:00:34.206Z,58.30
2019-01-24T00:03:03.003Z,56.73
2019-01-24T00:05:31.594Z,54.03
2019-01-24T00:08:00.297Z,57.73
2019-01-24T00:10:29.074Z,59.17
2019-01-24T00:12:57.806Z,54.43
2019-01-24T00:15:26.504Z,55.93
2019-01-24T00:17:55.090Z,55.40
2019-01-24T00:20:23.858Z,57.03
2019-01-24T00:22:52.518Z,58.27
2019-01-24T00:25:21.159Z,53.17
2019-01-24T00:27:49.836Z,54.67
2019-01-24T00:30:18.495Z,58.70
2019-01-24T00:32:47.124Z,55.57
2019-01-24T00:35:16.087Z,55.83
2019-01-24T00:37:44.824Z,59.73
2019-01-24T00:40:19.250Z,57.87
2019-01-24T00:42:47.915Z,56.97
2019-01-24T00:45:17.040Z,55.10
2019-01-24T00:47:45.791Z,54.67
2019-01-24T00:50:16.048Z,59.37
2019-01-24T00:52:44.924Z,59.83
2019-01-24T00:55:15.906Z,60.87
2019-01-24T00:57:44.644Z,58.30
2019-01-24T01:00:24.815Z,54.30
2019-01-24T01:02:53.565Z,56.87
2019-01-24T01:05:22.343Z,54.40
2019-01-24T01:07:51.069Z,56.03
2019-01-24T01:10:20.124Z,63.03
2019-01-24T01:12:48.855Z,65.23
2019-01-24T01:15:19.433Z,61.13
2019-01-24T01:17:48.274Z,60.23
2019-01-24T01:20:19.254Z,59.10
2019-01-24T01:22:48.038Z,57.70
2019-01-24T01:25:17.561Z,62.27
2019-01-24T01:27:46.417Z,61.27
2019-01-24T01:30:17.684Z,60.27
2019-01-24T01:32:46.427Z,61.77
2019-01-24T01:35:15.162Z,60.40
2019-01-24T01:37:43.949Z,61.07
2019-01-24T01:40:20.090Z,61.13
2019-01-24T01:42:48.960Z,58.63
2019-01-24T01:45:21.834Z,63.47
2019-01-24T01:47:50.707Z,65.13
2019-01-24T01:50:21.330Z,60.43
2019-01-24T01:52:50.060Z,61.10
2019-01-24T01:55:18.951Z,58.53
2019-01-24T01:57:47.726Z,65.37
2019-01-24T02:00:19.253Z,62.47
2019-01-24T02:02:48.042Z,62.43
2019-01-24T02:05:16.839Z,61.00
2019-01-24T02:07:45.498Z,60.77
2019-01-24T02:10:19.740Z,62.10
2019-01-24T02:12:49.103Z,65.83
2019-01-24T02:15:18.892Z,64.43
2019-01-24T02:17:47.623Z,66.30
2019-01-24T02:20:21.258Z,65.80
2019-01-24T02:22:50.061Z,70.17
2019-01-24T02:25:18.807Z,65.67
2019-01-24T02:27:47.457Z,63.67
2019-01-24T02:30:21.839Z,59.97
2019-01-24T02:32:50.601Z,65.37
2019-01-24T02:35:19.264Z,63.47
2019-01-24T02:37:48.037Z,64.77
2019-01-24T02:40:16.875Z,62.63
2019-01-24T02:42:45.606Z,64.07
2019-01-24T02:45:16.744Z,63.37
2019-01-24T02:47:45.508Z,66.87
2019-01-24T02:50:19.191Z,68.07
2019-01-24T02:52:48.109Z,66.63
2019-01-24T02:55:17.542Z,65.77
2019-01-24T02:57:46.315Z,64.77
2019-01-24T03:00:24.729Z,69.17
2019-01-24T03:02:53.422Z,66.77
2019-01-24T03:05:23.342Z,65.43
2019-01-24T03:07:52.075Z,63.60
2019-01-24T03:10:20.846Z,69.03
2019-01-24T03:12:49.687Z,74.20
2019-01-24T03:15:22.518Z,65.83
2019-01-24T03:17:51.683Z,71.30
2019-01-24T03:20:20.731Z,74.10
2019-01-24T03:22:49.586Z,68.13
2019-01-24T03:25:18.731Z,67.07
2019-01-24T03:27:47.525Z,72.00
2019-01-24T03:30:21.053Z,68.00
2019-01-24T03:32:50.124Z,73.07
2019-01-24T03:35:24.282Z,68.87
2019-01-24T03:37:53.044Z,71.50
2019-01-24T03:40:21.931Z,68.07
2019-01-24T03:42:50.645Z,74.83
2019-01-24T03:45:19.398Z,69.47
2019-01-24T03:47:48.163Z,69.07
2019-01-24T03:50:21.505Z,72.17
2019-01-24T03:52:50.935Z,73.27
2019-01-24T03:55:20.807Z,73.83
2019-01-24T03:57:49.580Z,72.77
2019-01-24T04:00:22.936Z,76.67
2019-01-24T04:02:51.704Z,71.03
2019-01-24T04:05:20.987Z,74.33
2019-01-24T04:07:49.764Z,77.57
2019-01-24T04:10:20.341Z,74.43
2019-01-24T04:12:49.005Z,70.47
2019-01-24T04:15:19.965Z,75.93
2019-01-24T04:17:48.682Z,73.63
2019-01-24T04:20:18.407Z,72.57
2019-01-24T04:22:47.128Z,81.03
2019-01-24T04:25:15.955Z,75.70
2019-01-24T04:27:44.611Z,72.97
2019-01-24T04:30:21.299Z,79.90
2019-01-24T04:32:49.962Z,79.73
2019-01-24T04:35:19.896Z,77.10
2019-01-24T04:37:48.905Z,74.53
2019-01-24T04:40:18.983Z,79.70
2019-01-24T04:42:47.817Z,81.57
2019-01-24T04:45:18.018Z,78.63
2019-01-24T04:47:46.727Z,75.63
2019-01-24T04:50:17.519Z,81.07
2019-01-24T04:52:46.268Z,79.00
2019-01-24T04:55:19.436Z,85.13
2019-01-24T04:57:48.497Z,76.80
2019-01-24T05:00:20.083Z,79.20
2019-01-24T05:02:48.814Z,74.67
2019-01-24T05:05:17.913Z,78.13
2019-01-24T05:07:46.621Z,78.00
2019-01-24T05:10:15.301Z,79.33
2019-01-24T05:12:44.102Z,76.23
2019-01-24T05:15:13.410Z,75.17
2019-01-24T05:17:42.046Z,79.00
2019-01-24T05:20:13.073Z,80.77
2019-01-24T05:22:41.708Z,88.93
2019-01-24T05:25:12.739Z,84.30
2019-01-24T05:27:41.377Z,87.93
2019-01-24T05:30:13.376Z,86.93
2019-01-24T05:32:42.156Z,85.17
2019-01-24T05:35:10.865Z,85.40
2019-01-24T05:37:39.455Z,87.87
2019-01-24T05:40:09.323Z,88.13
2019-01-24T05:42:37.981Z,84.93
2019-01-24T05:45:09.856Z,82.47
2019-01-24T05:47:38.580Z,86.90
2019-01-24T05:50:10.274Z,87.07
2019-01-24T05:52:38.858Z,84.23
2019-01-24T05:55:09.688Z,84.37
2019-01-24T05:57:38.494Z,87.57
2019-01-24T06:00:17.330Z,84.90
2019-01-24T06:02:46.030Z,89.33
2019-01-24T06:05:14.963Z,90.10
2019-01-24T06:07:43.677Z,83.63
2019-01-24T06:10:16.676Z,89.77
2019-01-24T06:12:45.417Z,83.10
2019-01-24T06:15:16.299Z,85.30
2019-01-24T06:17:45.080Z,85.77
2019-01-24T06:20:14.170Z,87.80
2019-01-24T06:22:42.949Z,88.23
2019-01-24T06:25:13.428Z,83.83
2019-01-24T06:27:42.148Z,86.30
2019-01-24T06:30:16.181Z,88.37
2019-01-24T06:32:44.974Z,89.47
2019-01-24T06:35:13.736Z,87.27
2019-01-24T06:37:42.465Z,90.47
2019-01-24T06:40:13.550Z,86.73
2019-01-24T06:42:42.284Z,86.13
2019-01-24T06:45:16.522Z,82.23
2019-01-24T06:47:45.271Z,87.70
2019-01-24T06:50:15.836Z,85.93
2019-01-24T06:52:44.433Z,86.10
2019-01-24T06:55:16.268Z,88.27
2019-01-24T06:57:44.998Z,79.57
2019-01-24T07:00:16.231Z,85.90
2019-01-24T07:02:45.000Z,88.67
2019-01-24T07:05:14.049Z,87.77
2019-01-24T07:07:42.750Z,86.83
2019-01-24T07:10:17.042Z,87.33
2019-01-24T07:12:45.749Z,88.20
2019-01-24T07:15:16.778Z,88.70
2019-01-24T07:17:45.607Z,86.10
2019-01-24T07:20:16.189Z,81.70
2019-01-24T07:22:44.968Z,83.50
2019-01-24T07:25:19.387Z,85.80
2019-01-24T07:27:48.198Z,87.27
2019-01-24T07:30:18.521Z,89.93
2019-01-24T07:32:47.317Z,87.10
2019-01-24T07:35:17.446Z,80.47
2019-01-24T07:37:46.217Z,81.87
2019-01-24T07:40:16.750Z,86.17
2019-01-24T07:42:45.713Z,85.17
2019-01-24T07:45:22.988Z,87.50
2019-01-24T07:47:51.626Z,87.67
2019-01-24T07:50:20.227Z,84.30
2019-01-24T07:52:48.946Z,84.20
2019-01-24T07:55:17.737Z,83.27
2019-01-24T07:57:46.494Z,91.23
2019-01-24T08:00:20.433Z,84.37
2019-01-24T08:02:49.172Z,86.33
2019-01-24T08:05:17.893Z,83.80
2019-01-24T08:07:46.882Z,82.03
2019-01-24T08:10:18.422Z,77.07
2019-01-24T08:12:47.394Z,79.03
2019-01-24T08:15:20.743Z,83.47
2019-01-24T08:17:49.701Z,86.50
2019-01-24T08:20:23.448Z,83.13
2019-01-24T08:22:52.182Z,86.83
2019-01-24T08:25:20.979Z,85.37
2019-01-24T08:27:49.659Z,89.87
2019-01-24T08:30:23.163Z,87.03
2019-01-24T08:32:51.842Z,88.10
2019-01-24T08:35:20.500Z,82.73
2019-01-24T08:37:49.275Z,79.67
2019-01-24T08:40:20.416Z,80.57
2019-01-24T08:42:49.264Z,84.33
2019-01-24T08:45:18.609Z,81.00
2019-01-24T08:47:47.266Z,75.83
2019-01-24T08:50:26.504Z,82.17
2019-01-24T08:52:55.242Z,80.47
2019-01-24T08:55:29.901Z,86.50
2019-01-24T08:57:58.562Z,84.83
2019-01-24T09:00:27.312Z,88.27
2019-01-24T09:02:56.006Z,85.57
2019-01-24T09:05:24.789Z,89.23
2019-01-24T09:07:53.765Z,85.73
2019-01-24T09:10:37.032Z,87.63
2019-01-24T09:13:06.921Z,79.63
2019-01-24T09:15:36.089Z,89.03
2019-01-24T09:18:05.235Z,92.63
2019-01-24T09:20:33.889Z,92.60
2019-01-24T09:23:02.655Z,92.40
2019-01-24T09:25:31.352Z,91.73
2019-01-24T09:28:00.041Z,90.10
2019-01-24T09:30:29.732Z,89.03
2019-01-24T09:32:58.321Z,89.27
2019-01-24T09:35:27.027Z,90.97
2019-01-24T09:37:55.734Z,85.77
2019-01-24T09:40:24.938Z,84.87
2019-01-24T09:42:53.649Z,83.93
2019-01-24T09:45:27.138Z,86.90
2019-01-24T09:47:58.265Z,87.27
2019-01-24T09:50:28.445Z,95.33
2019-01-24T09:52:57.165Z,82.43
2019-01-24T09:55:25.927Z,86.93
2019-01-24T09:57:54.882Z,85.47
2019-01-24T10:00:31.793Z,82.67
2019-01-24T10:03:00.527Z,80.03
2019-01-24T10:05:29.106Z,78.00
2019-01-24T10:07:57.866Z,79.60
2019-01-24T10:10:27.892Z,79.73
2019-01-24T10:12:57.622Z,76.17
2019-01-24T10:15:26.885Z,74.57
2019-01-24T10:17:55.515Z,70.80
2019-01-24T10:20:26.174Z,73.53
2019-01-24T10:22:55.110Z,71.37
2019-01-24T10:25:26.669Z,71.97
2019-01-24T10:27:55.492Z,74.70
2019-01-24T10:30:25.788Z,74.67
2019-01-24T10:32:54.581Z,74.07
2019-01-24T10:35:23.429Z,67.53
2019-01-24T10:37:52.202Z,72.70
2019-01-24T10:40:27.218Z,71.90
2019-01-24T10:42:56.331Z,72.63
2019-01-24T10:45:25.100Z,74.47
2019-01-24T12:06:07.699Z,86.87
2019-01-24T12:08:36.397Z,81.07
2019-01-24T12:11:05.395Z,80.73
2019-01-24T12:13:34.172Z,82.83
2019-01-24T12:16:02.950Z,81.73
2019-01-24T12:18:31.573Z,79.03
2019-01-24T12:21:00.238Z,78.50
2019-01-24T12:23:28.931Z,72.13
2019-01-24T12:25:57.761Z,74.23
2019-01-24T12:28:26.341Z,78.47
2019-01-24T12:30:54.986Z,73.87
2019-01-24T12:33:23.683Z,76.10
2019-01-24T12:35:52.283Z,74.33
2019-01-24T12:38:20.966Z,76.60
2019-01-24T12:40:49.691Z,75.13
2019-01-24T12:43:18.456Z,76.27
2019-01-24T12:45:47.173Z,81.97
2019-01-24T12:48:16.089Z,80.87
2019-01-24T12:50:44.792Z,78.20
2019-01-24T12:53:13.489Z,73.57
2019-01-24T12:55:42.219Z,72.13
2019-01-24T12:58:10.862Z,73.30
2019-01-24T13:00:39.731Z,77.07
2019-01-24T13:03:08.453Z,75.73
2019-01-24T13:05:37.211Z,82.23
2019-01-24T13:08:06.178Z,76.73
2019-01-24T13:10:34.932Z,73.33
2019-01-24T13:13:03.613Z,81.23
2019-01-24T13:15:33.389Z,77.97
2019-01-24T13:18:02.990Z,79.03
2019-01-24T13:20:31.794Z,79.80
2019-01-24T13:23:00.584Z,76.83
2019-01-24T13:25:31.381Z,73.37
2019-01-24T13:28:00.173Z,77.17
2019-01-24T13:30:33.352Z,73.93
2019-01-24T13:33:02.613Z,77.17
2019-01-24T13:35:31.344Z,79.67
2019-01-24T13:38:00.110Z,74.70
2019-01-24T13:40:30.318Z,70.90
2019-01-24T13:42:59.744Z,75.77
2019-01-24T13:45:33.475Z,77.50
2019-01-24T13:48:02.446Z,77.97
2019-01-24T13:50:31.211Z,75.83
2019-01-24T13:52:59.934Z,74.00
2019-01-24T13:55:28.641Z,79.03
2019-01-24T13:57:57.360Z,78.27
2019-01-24T14:00:31.199Z,72.13
2019-01-24T14:03:08.453Z,75.53
2019-01-24T14:05:37.216Z,76.73
2019-01-24T14:08:06.076Z,75.03
2019-01-24T14:10:34.913Z,80.23
2019-01-24T14:13:03.638Z,81.30
2019-01-24T14:15:32.380Z,79.70
2019-01-24T14:18:01.130Z,75.93
2019-01-24T14:20:29.877Z,76.87
2019-01-24T14:22:58.839Z,76.27
2019-01-24T14:25:27.567Z,77.57
2019-01-24T14:27:56.266Z,80.70
2019-01-24T14:30:27.324Z,85.57
2019-01-24T14:32:56.058Z,78.97
2019-01-24T14:35:25.417Z,77.23
2019-01-24T14:37:54.239Z,77.10
2019-01-24T14:40:23.023Z,80.77
2019-01-24T14:42:52.788Z,80.23
2019-01-24T14:45:24.298Z,80.90
2019-01-24T14:47:53.398Z,75.90
2019-01-24T14:50:27.087Z,74.47
2019-01-24T14:52:56.169Z,78.20
2019-01-24T14:55:25.767Z,74.23
2019-01-24T14:57:54.949Z,76.20
2019-01-24T15:00:32.170Z,79.90
2019-01-24T15:03:01.138Z,78.17
2019-01-24T15:05:30.106Z,84.93
2019-01-24T15:07:59.499Z,80.53
2019-01-24T15:10:28.557Z,83.00
2019-01-24T15:12:57.621Z,80.63
2019-01-24T15:15:26.680Z,82.80
2019-01-24T15:17:55.602Z,79.03
2019-01-24T15:20:24.669Z,81.63
2019-01-24T15:22:54.034Z,79.77
2019-01-24T15:25:24.066Z,75.73
2019-01-24T15:27:53.758Z,84.13
2019-01-24T15:30:25.448Z,84.93
2019-01-24T15:32:54.803Z,79.37
2019-01-24T15:35:24.384Z,78.80
2019-01-24T15:37:54.590Z,86.50
2019-01-24T15:40:34.957Z,79.83
2019-01-24T15:43:04.893Z,85.13
2019-01-24T15:45:34.637Z,81.90
2019-01-24T15:48:04.966Z,81.77
2019-01-24T15:50:34.249Z,83.03
2019-01-24T15:53:03.532Z,79.27
2019-01-24T15:55:32.712Z,80.60
2019-01-24T15:58:01.643Z,82.83
2019-01-24T16:00:32.642Z,80.20
2019-01-24T16:03:02.473Z,80.17
2019-01-24T16:05:32.081Z,79.77
2019-01-24T16:08:02.167Z,80.33
2019-01-24T16:10:31.909Z,78.57
2019-01-24T16:13:01.688Z,78.53
2019-01-24T16:15:35.924Z,77.97
2019-01-24T16:18:07.482Z,79.30
2019-01-24T16:20:37.565Z,87.13
2019-01-24T16:23:07.832Z,79.03
2019-01-24T16:25:37.952Z,83.70
2019-01-24T16:28:07.830Z,81.60
2019-01-24T16:30:37.912Z,84.57
2019-01-24T16:33:09.058Z,76.87
2019-01-24T16:35:39.278Z,86.30
2019-01-24T16:38:09.841Z,78.33
2019-01-24T16:40:40.016Z,88.33
2019-01-24T16:43:09.919Z,76.67
2019-01-24T16:45:40.066Z,82.07
2019-01-24T16:48:10.048Z,81.60
2019-01-24T16:50:39.626Z,83.57
2019-01-24T16:53:09.462Z,85.03
2019-01-24T16:55:39.492Z,81.17
2019-01-24T16:58:09.624Z,84.93
2019-01-24T17:00:44.359Z,78.60
2019-01-24T17:03:14.679Z,82.57
2019-01-24T17:05:44.662Z,82.73
2019-01-24T17:08:16.614Z,85.23
2019-01-24T17:10:46.558Z,81.23
2019-01-24T17:13:16.306Z,83.97
2019-01-24T17:15:46.451Z,82.67
2019-01-24T17:18:16.196Z,81.50
2019-01-24T17:20:46.275Z,84.73
2019-01-24T17:23:16.434Z,79.50
2019-01-24T17:25:46.319Z,85.97
2019-01-24T17:28:17.197Z,84.53
2019-01-24T17:30:46.937Z,85.77
2019-01-24T17:33:16.626Z,81.57
2019-01-24T17:35:46.722Z,82.37
2019-01-24T17:38:23.414Z,82.47
2019-01-24T17:40:48.529Z,84.97
2019-01-24T17:43:18.802Z,83.50
2019-01-24T17:45:49.014Z,92.53
2019-01-24T17:48:19.166Z,87.17
2019-01-24T17:50:49.504Z,87.40
2019-01-24T17:53:19.639Z,87.07
2019-01-24T17:55:49.925Z,86.70
2019-01-24T17:58:19.951Z,85.57
2019-01-24T18:00:51.161Z,83.47
2019-01-24T18:03:21.224Z,85.47
2019-01-24T18:05:51.305Z,85.97
2019-01-24T18:08:21.317Z,85.50
2019-01-24T18:10:51.541Z,87.40
2019-01-24T18:13:21.893Z,97.17
2019-01-24T18:15:52.674Z,88.17
2019-01-24T18:18:25.119Z,91.27
2019-01-24T18:20:55.815Z,92.13
2019-01-24T18:23:26.311Z,87.30
2019-01-24T18:25:56.644Z,97.03
2019-01-24T18:28:27.095Z,93.03
2019-01-24T18:30:57.673Z,91.30
2019-01-24T18:33:28.044Z,90.37
2019-01-24T18:35:58.399Z,91.47
2019-01-24T18:38:29.857Z,91.33
2019-01-24T18:41:00.501Z,86.73
2019-01-24T18:43:31.121Z,91.07
2019-01-24T18:46:01.788Z,89.93
2019-01-24T18:48:32.048Z,95.87
2019-01-24T18:51:02.534Z,84.70
2019-01-24T18:53:33.038Z,91.23
2019-01-24T18:56:03.130Z,91.00
2019-01-24T18:58:33.316Z,91.20
2019-01-24T19:01:03.836Z,87.20
2019-01-24T19:03:34.267Z,87.13
2019-01-24T19:06:04.956Z,88.23
2019-01-24T19:08:35.500Z,88.17
2019-01-24T19:11:06.532Z,86.33
2019-01-24T19:13:37.449Z,89.03
2019-01-24T19:16:08.184Z,94.30
2019-01-24T19:18:39.092Z,95.83
2019-01-24T19:21:09.701Z,89.47
2019-01-24T19:23:44.772Z,88.23
2019-01-24T19:26:15.762Z,87.43
2019-01-24T19:28:46.597Z,86.17
2019-01-24T19:31:17.402Z,90.97
2019-01-24T19:33:48.269Z,91.07
2019-01-24T19:36:19.069Z,93.37
2019-01-24T19:39:08.969Z,96.80
2019-01-24T19:41:40.057Z,91.73
2019-01-24T19:44:15.636Z,87.97
2019-01-24T19:46:43.454Z,95.93
2019-01-24T19:49:14.836Z,88.43
2019-01-24T19:51:47.006Z,93.37
2019-01-24T19:54:22.637Z,91.47
2019-01-24T19:56:55.188Z,85.10
2019-01-24T19:59:26.312Z,88.03
2019-01-24T20:02:02.767Z,93.07
2019-01-24T20:04:35.112Z,90.83
2019-01-24T20:07:05.702Z,96.40
2019-01-24T20:09:36.541Z,83.87
2019-01-24T20:12:07.941Z,88.73
2019-01-24T20:14:41.901Z,89.40
2019-01-24T20:17:12.419Z,88.30
2019-01-24T20:19:43.257Z,86.93
2019-01-24T20:22:14.011Z,89.97
2019-01-24T20:24:49.817Z,87.83
2019-01-24T20:27:20.224Z,86.93
2019-01-24T20:29:53.740Z,93.80
2019-01-24T20:32:24.405Z,88.63
2019-01-24T20:34:54.968Z,93.30
2019-01-24T20:37:25.769Z,91.30
2019-01-24T20:39:56.611Z,90.20
2019-01-24T20:42:26.974Z,83.83
2019-01-24T20:44:57.773Z,84.27
2019-01-24T20:47:28.187Z,88.97
2019-01-24T20:49:58.161Z,89.47
2019-01-24T20:52:28.579Z,83.70
2019-01-24T20:54:58.468Z,89.80
2019-01-24T20:57:36.690Z,92.60
2019-01-24T21:00:08.868Z,90.43
2019-01-24T21:02:39.278Z,90.33
2019-01-24T21:05:10.970Z,84.17
2019-01-24T21:07:41.518Z,85.90
2019-01-24T21:10:15.108Z,85.53
2019-01-24T21:12:45.362Z,86.13
2019-01-24T21:15:17.649Z,85.53
2019-01-24T21:17:47.801Z,85.77
2019-01-24T21:20:28.785Z,84.97
2019-01-24T21:22:58.598Z,84.70
2019-01-24T21:25:28.282Z,83.53
2019-01-24T21:27:59.022Z,87.33
2019-01-24T21:30:33.773Z,86.10
2019-01-24T21:33:03.378Z,89.23
2019-01-24T21:35:33.171Z,86.53
2019-01-24T21:38:02.827Z,86.30
2019-01-24T21:40:32.452Z,87.27
2019-01-24T21:43:01.670Z,87.77
2019-01-24T21:45:33.190Z,87.23
2019-01-24T21:48:02.760Z,88.00
2019-01-24T21:50:33.459Z,86.07
2019-01-24T21:53:02.692Z,86.70
2019-01-24T21:55:32.113Z,77.80
2019-01-24T21:58:01.025Z,86.67
2019-01-24T22:00:30.465Z,86.33
2019-01-24T22:02:59.771Z,89.03
2019-01-24T22:05:29.197Z,84.40
2019-01-24T22:07:58.199Z,87.37
2019-01-24T22:10:29.087Z,86.13
2019-01-24T22:12:57.809Z,87.13
2019-01-24T22:15:28.768Z,95.47
2019-01-24T22:17:57.857Z,93.30
2019-01-24T22:20:26.828Z,91.50
2019-01-24T22:22:55.622Z,87.40
2019-01-24T22:25:26.576Z,88.07
2019-01-24T22:27:55.394Z,88.77
2019-01-24T22:30:37.244Z,85.07
2019-01-24T22:33:06.809Z,90.43
2019-01-24T22:35:35.641Z,93.77
2019-01-24T22:38:05.016Z,93.97
2019-01-24T22:40:33.768Z,92.20
2019-01-24T22:43:02.540Z,87.03
2019-01-24T22:45:31.320Z,86.13
2019-01-24T22:48:00.009Z,90.27
2019-01-24T22:50:28.789Z,89.07
2019-01-24T22:52:57.389Z,85.73
2019-01-24T22:55:26.050Z,83.30
2019-01-24T22:57:54.825Z,91.93
2019-01-24T23:00:53.615Z,85.73
2019-01-24T23:03:31.312Z,84.57
2019-01-24T23:06:00.108Z,82.87
2019-01-24T23:08:28.803Z,91.60
2019-01-24T23:10:57.507Z,87.50
2019-01-24T23:13:26.277Z,82.50
2019-01-24T23:15:54.938Z,87.83
2019-01-24T23:18:23.628Z,86.17
2019-01-24T23:20:52.416Z,82.00
2019-01-24T23:23:21.063Z,87.03
2019-01-24T23:25:49.837Z,90.40
2019-01-24T23:28:18.634Z,89.40
2019-01-24T23:30:47.407Z,83.60
2019-01-24T23:33:16.163Z,91.43
2019-01-24T23:35:44.881Z,90.17
2019-01-24T23:38:13.637Z,90.80
2019-01-24T23:40:42.333Z,86.67
2019-01-24T23:43:11.115Z,87.80
2019-01-24T23:45:39.870Z,88.60
2019-01-24T23:48:08.652Z,88.00
2019-01-24T23:50:37.438Z,90.17
2019-01-24T23:53:06.197Z,93.57
2019-01-24T23:55:34.787Z,89.93
2019-01-24T23:58:03.554Z,85.27
